createdAt,value
2023-05-10T00:00:42.698Z,967.51
2023-05-10T00:01:42.691Z,971.72
2023-05-10T00:02:42.777Z,963.34
2023-05-10T00:03:42.717Z,956.46
2023-05-10T00:04:42.642Z,952.38
2023-05-10T00:05:42.623Z,951.70
2023-05-10T00:06:42.603Z,946.33
2023-05-10T00:07:42.564Z,946.33
2023-05-10T00:08:42.608Z,945.66
2023-05-10T00:09:42.564Z,937.06
2023-05-10T00:10:42.571Z,937.72
2023-05-10T00:11:42.557Z,952.38
2023-05-10T00:12:42.528Z,940.35
2023-05-10T00:13:42.494Z,941.67
2023-05-10T00:14:42.478Z,938.38
2023-05-10T00:15:42.476Z,941.01
2023-05-10T00:16:42.472Z,929.91
2023-05-10T00:17:42.538Z,929.26
2023-05-10T00:18:42.453Z,929.26
2023-05-10T00:19:42.426Z,935.10
2023-05-10T00:20:42.410Z,928.62
2023-05-10T00:21:43.006Z,919.07
2023-05-10T00:22:42.386Z,916.55
2023-05-10T00:23:42.367Z,916.55
2023-05-10T00:24:42.378Z,908.47
2023-05-10T00:25:42.329Z,927.98
2023-05-10T00:26:42.339Z,927.98
2023-05-10T00:27:42.350Z,922.86
2023-05-10T00:28:42.305Z,929.26
2023-05-10T00:29:42.312Z,928.62
2023-05-10T00:30:42.310Z,931.20
2023-05-10T00:31:42.318Z,928.62
2023-05-10T00:32:42.297Z,924.14
2023-05-10T00:33:42.234Z,931.20
2023-05-10T00:34:42.228Z,927.98
2023-05-10T00:35:42.271Z,919.70
2023-05-10T00:36:42.241Z,909.71
2023-05-10T00:37:42.227Z,901.75
2023-05-10T00:38:42.154Z,893.33
2023-05-10T00:39:42.148Z,885.66
2023-05-10T00:40:42.142Z,879.84
2023-05-10T00:41:42.165Z,873.53
2023-05-10T00:42:42.138Z,867.31
2023-05-10T00:43:42.126Z,852.96
2023-05-10T00:44:42.084Z,840.65
2023-05-10T00:45:42.114Z,834.37
2023-05-10T00:46:42.168Z,828.70
2023-05-10T00:47:42.131Z,816.58
2023-05-10T00:48:42.020Z,819.07
2023-05-10T00:49:42.022Z,812.61
2023-05-10T00:50:42.013Z,812.12
2023-05-10T00:51:42.012Z,807.23
2023-05-10T00:52:42.005Z,800.00
2023-05-10T00:53:41.998Z,791.96
2023-05-10T00:54:41.954Z,794.78
2023-05-10T00:55:41.962Z,782.25
2023-05-10T00:56:41.978Z,780.89
2023-05-10T00:57:41.959Z,773.22
2023-05-10T00:58:42.012Z,764.84
2023-05-10T00:59:41.908Z,755.35
2023-05-10T01:00:41.900Z,753.66
2023-05-10T01:01:41.924Z,751.96
2023-05-10T01:02:41.900Z,744.53
2023-05-10T01:03:41.911Z,741.23
2023-05-10T01:04:41.883Z,727.53
2023-05-10T01:05:41.878Z,726.74
2023-05-10T01:06:41.836Z,725.17
2023-05-10T01:07:41.800Z,721.26
2023-05-10T01:08:41.788Z,716.63
2023-05-10T01:09:41.771Z,709.79
2023-05-10T01:10:41.737Z,709.79
2023-05-10T01:11:41.754Z,704.56
2023-05-10T01:12:41.904Z,705.30
2023-05-10T01:13:41.738Z,700.14
2023-05-10T01:14:41.702Z,697.95
2023-05-10T01:15:41.725Z,693.61
2023-05-10T01:16:41.763Z,692.89
2023-05-10T01:17:41.696Z,690.03
2023-05-10T01:18:41.637Z,688.61
2023-05-10T01:19:41.620Z,691.46
2023-05-10T01:20:41.606Z,696.49
2023-05-10T01:21:41.617Z,692.17
2023-05-10T01:22:41.608Z,692.17
2023-05-10T01:23:41.600Z,689.32
2023-05-10T01:24:41.576Z,685.79
2023-05-10T01:25:41.565Z,682.29
2023-05-10T01:26:41.558Z,678.15
2023-05-10T01:27:41.624Z,672.69
2023-05-10T01:28:41.525Z,667.99
2023-05-10T01:29:41.507Z,664.68
2023-05-10T01:30:41.524Z,669.33
2023-05-10T01:31:41.531Z,667.99
2023-05-10T01:32:41.527Z,666.66
2023-05-10T01:33:41.468Z,668.66
2023-05-10T01:34:41.433Z,666.66
2023-05-10T01:35:41.422Z,670.67
2023-05-10T01:36:41.415Z,670.67
2023-05-10T01:37:41.397Z,667.99
2023-05-10T01:38:41.440Z,671.34
2023-05-10T01:39:41.365Z,666.66
2023-05-10T01:40:41.353Z,663.36
2023-05-10T01:41:41.339Z,660.74
2023-05-10T01:42:41.343Z,656.85
2023-05-10T01:43:41.323Z,651.10
2023-05-10T01:44:41.328Z,649.21
2023-05-10T01:45:41.349Z,643.59
2023-05-10T01:46:41.301Z,641.12
2023-05-10T01:47:41.277Z,641.73
2023-05-10T01:48:41.253Z,638.67
2023-05-10T01:49:41.248Z,637.46
2023-05-10T01:50:41.230Z,631.44
2023-05-10T01:51:41.247Z,627.30
2023-05-10T01:52:41.206Z,622.05
2023-05-10T01:53:41.196Z,622.05
2023-05-10T01:54:41.164Z,615.76
2023-05-10T01:55:41.149Z,610.15
2023-05-10T01:56:41.167Z,605.73
2023-05-10T01:57:41.145Z,602.46
2023-05-10T01:58:41.108Z,603.54
2023-05-10T01:59:41.111Z,601.92
2023-05-10T02:00:41.157Z,603.00
2023-05-10T02:01:41.099Z,603.54
2023-05-10T02:02:41.110Z,600.84
2023-05-10T02:03:41.140Z,598.15
2023-05-10T02:04:41.082Z,593.38
2023-05-10T02:05:41.052Z,594.43
2023-05-10T02:06:41.029Z,594.96
2023-05-10T02:07:41.010Z,598.15
2023-05-10T02:08:40.985Z,599.76
2023-05-10T02:09:41.005Z,603.54
2023-05-10T02:10:40.965Z,603.54
2023-05-10T02:11:40.967Z,606.83
2023-05-10T02:12:40.924Z,606.83
2023-05-10T02:13:40.917Z,607.93
2023-05-10T02:14:40.963Z,607.93
2023-05-10T02:15:40.913Z,610.70
2023-05-10T02:16:40.955Z,615.19
2023-05-10T02:17:41.003Z,617.46
2023-05-10T02:18:40.873Z,618.60
2023-05-10T02:19:40.886Z,618.03
2023-05-10T02:20:41.582Z,616.89
2023-05-10T02:21:40.813Z,614.06
2023-05-10T02:22:40.795Z,611.82
2023-05-10T02:23:40.821Z,611.26
2023-05-10T02:24:40.793Z,606.83
2023-05-10T02:25:40.786Z,604.63
2023-05-10T02:26:40.743Z,604.09
2023-05-10T02:27:40.760Z,601.38
2023-05-10T02:28:40.720Z,598.15
2023-05-10T02:29:40.715Z,594.43
2023-05-10T02:30:40.771Z,595.49
2023-05-10T02:31:40.736Z,592.33
2023-05-10T02:32:40.693Z,592.85
2023-05-10T02:33:40.670Z,587.65
2023-05-10T02:34:40.663Z,585.08
2023-05-10T02:35:40.775Z,583.55
2023-05-10T02:36:40.698Z,582.03
2023-05-10T02:37:40.652Z,580.51
2023-05-10T02:38:40.624Z,581.02
2023-05-10T02:39:40.599Z,579.51
2023-05-10T02:40:40.597Z,579.01
2023-05-10T02:41:40.579Z,576.51
2023-05-10T02:42:40.626Z,573.55
2023-05-10T02:43:40.592Z,571.10
2023-05-10T02:44:40.700Z,572.57
2023-05-10T02:45:40.538Z,568.67
2023-05-10T02:46:40.555Z,564.84
2023-05-10T02:47:40.554Z,561.99
2023-05-10T02:48:40.546Z,560.11
2023-05-10T02:49:40.504Z,555.92
2023-05-10T02:50:40.492Z,551.80
2023-05-10T02:51:40.506Z,551.34
2023-05-10T02:52:40.418Z,548.18
2023-05-10T02:53:40.428Z,544.17
2023-05-10T02:54:40.385Z,541.97
2023-05-10T02:55:40.630Z,541.09
2023-05-10T02:56:40.390Z,540.22
2023-05-10T02:57:40.488Z,540.65
2023-05-10T02:58:40.522Z,537.18
2023-05-10T02:59:40.366Z,535.89
2023-05-10T03:00:40.387Z,538.05
2023-05-10T03:01:40.507Z,539.78
2023-05-10T03:02:40.409Z,536.32
2023-05-10T03:03:40.379Z,535.89
2023-05-10T03:04:40.581Z,532.91
2023-05-10T03:05:40.394Z,529.95
2023-05-10T03:06:40.318Z,527.86
2023-05-10T03:07:40.306Z,526.62
2023-05-10T03:08:40.428Z,523.32
2023-05-10T03:09:40.289Z,517.26
2023-05-10T03:10:40.230Z,516.06
2023-05-10T03:11:40.182Z,513.68
2023-05-10T03:12:40.143Z,509.00
2023-05-10T03:13:40.184Z,510.16
2023-05-10T03:14:40.150Z,504.39
2023-05-10T03:15:40.164Z,496.90
2023-05-10T03:16:40.270Z,497.27
2023-05-10T03:17:40.141Z,492.88
2023-05-10T03:18:40.101Z,488.56
2023-05-10T03:19:40.119Z,483.97
2023-05-10T03:20:40.107Z,482.57
2023-05-10T03:21:40.014Z,481.19
2023-05-10T03:22:39.997Z,478.09
2023-05-10T03:23:39.979Z,477.75
2023-05-10T03:24:39.979Z,474.70
2023-05-10T03:25:39.960Z,475.71
2023-05-10T03:26:40.014Z,474.37
2023-05-10T03:27:39.944Z,474.37
2023-05-10T03:28:39.933Z,476.05
2023-05-10T03:29:39.993Z,481.88
2023-05-10T03:30:39.898Z,484.32
2023-05-10T03:31:40.043Z,481.53
2023-05-10T03:32:39.925Z,481.19
2023-05-10T03:33:39.887Z,487.85
2023-05-10T03:34:39.845Z,487.49
2023-05-10T03:35:39.864Z,487.14
2023-05-10T03:36:39.840Z,491.79
2023-05-10T03:37:39.796Z,491.07
2023-05-10T03:38:39.807Z,491.79
2023-05-10T03:39:39.798Z,491.07
2023-05-10T03:40:39.769Z,489.28
2023-05-10T03:41:39.753Z,495.43
2023-05-10T03:42:39.781Z,495.80
2023-05-10T03:43:39.767Z,497.27
2023-05-10T03:44:39.735Z,499.87
2023-05-10T03:45:39.697Z,500.25
2023-05-10T03:46:39.739Z,503.63
2023-05-10T03:47:39.736Z,505.92
2023-05-10T03:48:39.846Z,500.99
2023-05-10T03:49:39.649Z,502.12
2023-05-10T03:50:39.645Z,500.62
2023-05-10T03:51:39.622Z,505.15
2023-05-10T03:52:39.635Z,509.38
2023-05-10T03:53:39.599Z,510.16
2023-05-10T03:54:39.589Z,513.29
2023-05-10T03:55:39.588Z,515.66
2023-05-10T03:56:39.581Z,511.33
2023-05-10T03:57:39.561Z,511.72
2023-05-10T03:58:39.568Z,507.45
2023-05-10T03:59:39.564Z,507.45
2023-05-10T04:00:39.536Z,514.47
2023-05-10T04:01:39.528Z,514.08
2023-05-10T04:02:39.616Z,514.08
2023-05-10T04:03:39.586Z,509.77
2023-05-10T04:04:39.484Z,515.27
2023-05-10T04:05:39.435Z,513.68
2023-05-10T04:06:39.492Z,511.33
2023-05-10T04:07:39.453Z,511.33
2023-05-10T04:08:39.404Z,515.27
2023-05-10T04:09:39.409Z,520.07
2023-05-10T04:10:39.386Z,522.51
2023-05-10T04:11:39.361Z,525.79
2023-05-10T04:12:39.343Z,527.86
2023-05-10T04:13:39.390Z,525.38
2023-05-10T04:14:39.331Z,528.70
2023-05-10T04:15:45.322Z,529.53
2023-05-10T04:16:39.313Z,527.03
2023-05-10T04:17:39.339Z,527.03
2023-05-10T04:18:39.252Z,527.86
2023-05-10T04:19:39.235Z,530.79
2023-05-10T04:20:39.236Z,530.37
2023-05-10T04:21:39.241Z,534.61
2023-05-10T04:22:39.202Z,538.91
2023-05-10T04:23:39.177Z,544.61
2023-05-10T04:24:39.177Z,546.39
2023-05-10T04:25:39.194Z,545.50
2023-05-10T04:26:39.203Z,546.39
2023-05-10T04:27:39.147Z,545.95
2023-05-10T04:28:39.143Z,549.53
2023-05-10T04:29:39.099Z,555.46
2023-05-10T04:30:39.157Z,563.88
2023-05-10T04:31:39.123Z,568.67
2023-05-10T04:32:39.119Z,574.04
2023-05-10T04:33:39.062Z,575.52
2023-05-10T04:34:39.038Z,581.52
2023-05-10T04:35:39.042Z,581.02
2023-05-10T04:36:39.106Z,579.01
2023-05-10T04:37:39.032Z,584.06
2023-05-10T04:38:39.009Z,584.57
2023-05-10T04:39:40.298Z,589.20
2023-05-10T04:40:38.961Z,591.80
2023-05-10T04:41:38.970Z,599.22
2023-05-10T04:42:38.981Z,600.30
2023-05-10T04:43:38.930Z,610.70
2023-05-10T04:44:38.927Z,610.70
2023-05-10T04:45:38.904Z,612.38
2023-05-10T04:46:38.957Z,623.21
2023-05-10T04:47:38.934Z,620.90
2023-05-10T04:48:38.864Z,632.64
2023-05-10T04:49:38.841Z,634.44
2023-05-10T04:50:38.862Z,638.67
2023-05-10T04:51:38.842Z,642.97
2023-05-10T04:52:38.816Z,644.21
2023-05-10T04:53:38.812Z,649.84
2023-05-10T04:54:38.792Z,650.47
2023-05-10T04:55:38.773Z,647.32
2023-05-10T04:56:38.747Z,654.28
2023-05-10T04:57:38.760Z,660.74
2023-05-10T04:58:38.715Z,662.70
2023-05-10T04:59:38.725Z,670.00
2023-05-10T05:00:38.710Z,669.33
2023-05-10T05:01:38.706Z,672.69
2023-05-10T05:02:38.753Z,684.39
2023-05-10T05:03:38.704Z,687.20
2023-05-10T05:04:38.659Z,687.90
2023-05-10T05:05:38.631Z,689.32
2023-05-10T05:06:38.614Z,692.17
2023-05-10T05:07:38.624Z,694.33
2023-05-10T05:08:38.612Z,697.22
2023-05-10T05:09:38.591Z,695.77
2023-05-10T05:10:38.563Z,704.56
2023-05-10T05:11:38.581Z,696.49
2023-05-10T05:12:38.590Z,695.77
2023-05-10T05:13:38.527Z,705.30
2023-05-10T05:14:38.526Z,709.79
2023-05-10T05:15:38.497Z,707.54
2023-05-10T05:16:38.524Z,712.05
2023-05-10T05:17:38.515Z,715.10
2023-05-10T05:18:38.469Z,716.63
2023-05-10T05:19:38.463Z,717.40
2023-05-10T05:20:38.451Z,718.94
2023-05-10T05:21:38.438Z,724.38
2023-05-10T05:22:38.415Z,719.71
2023-05-10T05:23:38.398Z,717.40
2023-05-10T05:24:38.388Z,723.60
2023-05-10T05:25:38.372Z,717.40
2023-05-10T05:26:38.358Z,724.38
2023-05-10T05:27:38.366Z,734.72
2023-05-10T05:28:38.355Z,732.31
2023-05-10T05:29:38.328Z,726.74
2023-05-10T05:30:38.333Z,734.72
2023-05-10T05:31:38.387Z,739.59
2023-05-10T05:32:38.327Z,747.77
2023-05-10T05:33:38.249Z,750.28
2023-05-10T05:34:38.261Z,735.53
2023-05-10T05:35:38.238Z,737.96
2023-05-10T05:36:38.255Z,745.36
2023-05-10T05:37:38.228Z,755.78
2023-05-10T05:38:38.198Z,775.46
2023-05-10T05:39:38.201Z,774.12
2023-05-10T05:40:38.184Z,771.89
2023-05-10T05:41:38.172Z,775.91
2023-05-10T05:42:38.162Z,777.26
2023-05-10T05:43:38.548Z,790.56
2023-05-10T05:44:38.116Z,797.14
2023-05-10T05:45:38.119Z,800.96
2023-05-10T05:46:38.292Z,800.96
2023-05-10T05:47:38.106Z,809.67
2023-05-10T05:48:38.080Z,807.23
2023-05-10T05:49:38.077Z,819.07
2023-05-10T05:50:38.039Z,822.59
2023-05-10T05:51:38.025Z,822.09
2023-05-10T05:52:38.013Z,817.57
2023-05-10T05:53:37.989Z,824.11
2023-05-10T05:54:37.982Z,824.61
2023-05-10T05:55:37.992Z,821.58
2023-05-10T05:56:37.999Z,834.37
2023-05-10T05:57:37.934Z,840.65
2023-05-10T05:58:37.930Z,852.96
2023-05-10T05:59:37.920Z,850.79
2023-05-10T06:00:37.931Z,852.42
2023-05-10T06:01:37.888Z,854.05
2023-05-10T06:02:38.106Z,864.52
2023-05-10T06:03:37.938Z,850.79
2023-05-10T06:04:37.857Z,847.03
2023-05-10T06:05:37.851Z,842.77
2023-05-10T06:06:37.826Z,844.89
2023-05-10T06:07:37.803Z,862.29
2023-05-10T06:08:37.807Z,876.39
2023-05-10T06:09:37.800Z,886.24
2023-05-10T06:10:37.793Z,898.12
2023-05-10T06:11:37.804Z,907.86
2023-05-10T06:12:37.758Z,909.09
2023-05-10T06:13:37.743Z,924.14
2023-05-10T06:14:37.714Z,931.85
2023-05-10T06:15:37.720Z,933.15
2023-05-10T06:16:37.853Z,940.35
2023-05-10T06:17:37.697Z,955.78
2023-05-10T06:18:37.682Z,947.00
2023-05-10T06:19:37.683Z,956.46
2023-05-10T06:20:37.643Z,960.57
2023-05-10T06:21:37.627Z,958.51
2023-05-10T06:22:37.628Z,955.10
2023-05-10T06:23:37.622Z,961.26
2023-05-10T06:24:37.592Z,966.81
2023-05-10T06:25:37.572Z,978.82
2023-05-10T06:26:37.580Z,994.07
2023-05-10T06:27:37.551Z,996.28
2023-05-10T06:28:37.558Z,997.77
2023-05-10T06:29:37.534Z,1003.74
2023-05-10T06:30:37.511Z,1006.01
2023-05-10T06:31:37.555Z,1030.77
2023-05-10T06:32:37.555Z,1029.19
2023-05-10T06:33:37.492Z,1033.15
2023-05-10T06:34:37.480Z,1044.43
2023-05-10T06:35:37.462Z,1060.13
2023-05-10T06:36:37.435Z,1066.03
2023-05-10T06:37:37.450Z,1069.43
2023-05-10T06:38:37.406Z,1072.86
2023-05-10T06:39:37.392Z,1076.31
2023-05-10T06:40:37.416Z,1097.46
2023-05-10T06:41:37.382Z,1088.55
2023-05-10T06:42:37.369Z,1105.61
2023-05-10T06:43:37.335Z,1100.16
2023-05-10T06:44:37.350Z,1079.77
2023-05-10T06:45:37.386Z,1085.90
2023-05-10T06:46:37.380Z,1104.70
2023-05-10T06:47:39.236Z,1127.95
2023-05-10T06:48:37.292Z,1135.59
2023-05-10T06:49:37.275Z,1143.34
2023-05-10T06:50:37.265Z,1145.30
2023-05-10T06:51:37.226Z,1142.37
2023-05-10T06:52:37.260Z,1145.30
2023-05-10T06:53:37.212Z,1155.17
2023-05-10T06:54:37.206Z,1164.20
2023-05-10T06:55:37.220Z,1165.22
2023-05-10T06:56:37.194Z,1167.25
2023-05-10T06:57:37.209Z,1172.35
2023-05-10T06:58:37.163Z,1177.50
2023-05-10T06:59:37.198Z,1185.84
2023-05-10T07:00:37.127Z,1195.36
2023-05-10T07:01:37.133Z,1218.18
2023-05-10T07:02:37.158Z,1225.98
2023-05-10T07:03:37.081Z,1247.67
2023-05-10T07:04:37.148Z,1238.45
2023-05-10T07:05:37.066Z,1248.83
2023-05-10T07:06:37.046Z,1251.17
2023-05-10T07:07:37.042Z,1259.40
2023-05-10T07:08:37.033Z,1277.41
2023-05-10T07:09:37.008Z,1268.94
2023-05-10T07:10:37.008Z,1292.19
2023-05-10T07:11:36.978Z,1300.97
2023-05-10T07:12:37.010Z,1308.59
2023-05-10T07:13:36.996Z,1318.90
2023-05-10T07:14:36.943Z,1333.33
2023-05-10T07:15:36.932Z,1356.28
2023-05-10T07:16:36.989Z,1335.99
2023-05-10T07:17:37.311Z,1333.33
2023-05-10T07:18:36.930Z,1372.95
2023-05-10T07:19:36.911Z,1359.03
2023-05-10T07:20:36.839Z,1370.14
2023-05-10T07:21:36.948Z,1375.77
2023-05-10T07:22:36.820Z,1392.93
2023-05-10T07:23:36.824Z,1365.95
2023-05-10T07:24:36.843Z,1381.44
2023-05-10T07:25:36.788Z,1401.67
2023-05-10T07:26:36.781Z,1412.01
2023-05-10T07:27:36.777Z,1419.49
2023-05-10T07:28:36.726Z,1428.57
2023-05-10T07:29:36.746Z,1433.16
2023-05-10T07:30:36.768Z,1447.08
2023-05-10T07:31:36.730Z,1458.11
2023-05-10T07:32:36.801Z,1467.69
2023-05-10T07:33:36.673Z,1483.94
2023-05-10T07:34:36.670Z,1502.24
2023-05-10T07:35:36.653Z,1505.62
2023-05-10T07:36:36.694Z,1502.24
2023-05-10T07:37:36.643Z,1510.71
2023-05-10T07:38:38.378Z,1510.71
2023-05-10T07:39:36.658Z,1510.71
2023-05-10T07:40:36.599Z,1502.24
2023-05-10T07:41:36.598Z,1503.08
2023-05-10T07:42:36.572Z,1527.06
2023-05-10T07:43:36.574Z,1521.86
2023-05-10T07:44:36.532Z,1535.82
2023-05-10T07:45:36.604Z,1532.30
2023-05-10T07:46:36.534Z,1538.46
2023-05-10T07:47:36.514Z,1563.59
2023-05-10T07:48:36.491Z,1558.14
2023-05-10T07:49:36.508Z,1559.95
2023-05-10T07:50:36.484Z,1570.01
2023-05-10T07:51:36.449Z,1574.62
2023-05-10T07:52:36.444Z,1573.69
2023-05-10T07:53:36.466Z,1613.48
2023-05-10T07:54:36.415Z,1604.79
2023-05-10T07:55:36.396Z,1635.14
2023-05-10T07:56:36.359Z,1633.15
2023-05-10T07:57:36.390Z,1659.44
2023-05-10T07:58:36.386Z,1666.67
2023-05-10T07:59:36.363Z,1680.25
2023-05-10T08:00:36.369Z,1692.99
2023-05-10T08:01:36.327Z,1710.27
2023-05-10T08:02:36.426Z,1705.92
2023-05-10T08:03:36.345Z,1696.20
2023-05-10T08:04:36.320Z,1712.46
2023-05-10T08:05:36.280Z,1711.37
2023-05-10T08:06:36.289Z,1717.95
2023-05-10T08:07:36.249Z,1720.15
2023-05-10T08:08:36.205Z,1727.92
2023-05-10T08:09:36.205Z,1716.85
2023-05-10T08:10:36.223Z,1736.88
2023-05-10T08:11:36.203Z,1766.64
2023-05-10T08:12:36.160Z,1770.15
2023-05-10T08:13:36.189Z,1799.86
2023-05-10T08:14:36.130Z,1807.15
2023-05-10T08:15:36.144Z,1805.93
2023-05-10T08:16:36.111Z,1818.18
2023-05-10T08:17:36.112Z,1818.18
2023-05-10T08:18:36.133Z,1830.60
2023-05-10T08:19:36.107Z,1838.13
2023-05-10T08:20:36.059Z,1818.18
2023-05-10T08:21:36.037Z,1805.93
2023-05-10T08:22:36.044Z,1789.05
2023-05-10T08:23:36.005Z,1809.59
2023-05-10T08:24:36.000Z,1802.29
2023-05-10T08:25:35.979Z,1816.95
2023-05-10T08:26:35.976Z,1834.36
2023-05-10T08:27:35.947Z,1866.30
2023-05-10T08:28:35.950Z,1874.13
2023-05-10T08:29:48.997Z,1858.53
2023-05-10T08:30:36.081Z,1868.90
2023-05-10T08:31:35.949Z,1854.67
2023-05-10T08:32:35.922Z,1870.20
2023-05-10T08:33:35.886Z,1865.00
2023-05-10T08:34:35.873Z,1875.44
2023-05-10T08:35:35.881Z,1859.82
2023-05-10T08:36:35.844Z,1861.11
2023-05-10T08:37:35.821Z,1880.70
2023-05-10T08:38:35.817Z,1889.99
2023-05-10T08:39:35.832Z,1904.76
2023-05-10T08:40:35.791Z,1899.36
2023-05-10T08:41:35.793Z,1926.67
2023-05-10T08:42:35.767Z,1946.26
2023-05-10T08:43:35.809Z,1986.66
2023-05-10T08:44:35.775Z,1997.02
2023-05-10T08:45:35.750Z,2025.70
2023-05-10T08:46:35.731Z,2056.79
2023-05-10T08:47:35.715Z,2092.11
2023-05-10T08:48:35.719Z,2121.93
2023-05-10T08:49:35.797Z,2142.29
2023-05-10T08:50:35.669Z,2149.16
2023-05-10T08:51:35.654Z,2144.00
2023-05-10T08:52:35.620Z,2144.00
2023-05-10T08:53:35.639Z,2182.41
2023-05-10T08:54:35.681Z,2185.97
2023-05-10T08:55:35.607Z,2164.78
2023-05-10T08:56:35.592Z,2198.52
2023-05-10T08:57:35.588Z,2189.54
2023-05-10T08:58:35.585Z,2175.32
2023-05-10T08:59:35.546Z,2193.13
2023-05-10T09:00:35.580Z,2189.54
2023-05-10T09:01:35.553Z,2184.19
2023-05-10T09:02:35.545Z,2142.29
2023-05-10T09:03:35.549Z,2163.03
2023-05-10T09:04:35.556Z,2178.86
2023-05-10T09:05:35.466Z,2191.33
2023-05-10T09:06:35.458Z,2145.72
2023-05-10T09:07:36.379Z,2168.28
2023-05-10T09:08:35.467Z,2202.14
2023-05-10T09:09:35.444Z,2255.89
2023-05-10T09:10:35.426Z,2271.19
2023-05-10T09:11:35.410Z,2273.11
2023-05-10T09:12:35.385Z,2286.69
2023-05-10T09:13:35.382Z,2294.52
2023-05-10T09:14:35.362Z,2296.49
2023-05-10T09:15:35.358Z,2308.35
2023-05-10T09:16:35.696Z,2302.41
2023-05-10T09:17:35.430Z,2314.33
2023-05-10T09:18:35.367Z,2280.85
2023-05-10T09:19:35.292Z,2282.79
2023-05-10T09:20:35.275Z,2312.34
2023-05-10T09:21:35.268Z,2340.61
2023-05-10T09:22:35.363Z,2344.71
2023-05-10T09:23:35.489Z,2344.71
2023-05-10T09:24:35.349Z,2348.82
2023-05-10T09:25:35.222Z,2367.49
2023-05-10T09:26:35.225Z,2407.91
2023-05-10T09:27:35.204Z,2401.43
2023-05-10T09:28:35.200Z,2355.01
2023-05-10T09:29:35.172Z,2369.58
2023-05-10T09:30:35.220Z,2377.99
2023-05-10T09:31:35.199Z,2384.34
2023-05-10T09:32:35.151Z,2403.59
2023-05-10T09:33:35.142Z,2386.46
2023-05-10T09:34:35.102Z,2425.34
2023-05-10T09:35:35.094Z,2438.58
2023-05-10T09:36:35.098Z,2445.25
2023-05-10T09:37:35.074Z,2465.50
2023-05-10T09:38:35.051Z,2483.78
2023-05-10T09:39:35.046Z,2460.97
2023-05-10T09:40:35.036Z,2470.05
2023-05-10T09:41:35.025Z,2467.77
2023-05-10T09:42:35.018Z,2436.36
2023-05-10T09:43:34.996Z,2438.58
2023-05-10T09:44:35.043Z,2447.49
2023-05-10T09:45:37.685Z,2460.97
2023-05-10T09:46:34.974Z,2497.67
2023-05-10T09:47:35.015Z,2502.33
2023-05-10T09:48:34.954Z,2495.34
2023-05-10T09:49:34.924Z,2481.48
2023-05-10T09:50:34.953Z,2481.48
2023-05-10T09:51:36.668Z,2476.89
2023-05-10T09:52:34.896Z,2476.89
2023-05-10T09:53:34.900Z,2516.43
2023-05-10T09:54:34.884Z,2495.34
2023-05-10T09:55:34.856Z,2535.48
2023-05-10T09:56:34.873Z,2525.92
2023-05-10T09:57:35.275Z,2521.17
2023-05-10T09:58:34.857Z,2554.81
2023-05-10T09:59:34.816Z,2574.45
2023-05-10T10:00:34.792Z,2562.14
2023-05-10T10:01:34.820Z,2596.90
2023-05-10T10:02:34.876Z,2604.47
2023-05-10T10:03:34.756Z,2622.31
2023-05-10T10:04:34.783Z,2645.61
2023-05-10T10:05:34.770Z,2645.61
2023-05-10T10:06:34.735Z,2674.65
2023-05-10T10:07:34.719Z,2693.47
2023-05-10T10:08:34.731Z,2666.67
2023-05-10T10:09:34.704Z,2680.00
2023-05-10T10:10:34.703Z,2682.68
2023-05-10T10:11:34.664Z,2693.47
2023-05-10T10:12:34.747Z,2729.12
2023-05-10T10:13:34.654Z,2743.09
2023-05-10T10:14:34.622Z,2726.35
2023-05-10T10:15:34.611Z,2743.09
2023-05-10T10:16:51.593Z,2757.20
2023-05-10T10:17:34.651Z,2757.20
2023-05-10T10:18:34.669Z,2760.04
2023-05-10T10:19:34.622Z,2762.89
2023-05-10T10:20:34.612Z,2777.20
2023-05-10T10:21:34.574Z,2806.28
2023-05-10T10:22:34.563Z,2829.99
2023-05-10T10:23:34.603Z,2821.05
2023-05-10T10:24:34.551Z,2800.42
2023-05-10T10:25:34.576Z,2760.04
2023-05-10T10:26:34.513Z,2782.97
2023-05-10T10:27:34.513Z,2762.89
2023-05-10T10:28:34.499Z,2757.20
2023-05-10T10:29:34.604Z,2788.76
2023-05-10T10:30:34.606Z,2806.28
2023-05-10T10:31:34.482Z,2854.10
2023-05-10T10:32:34.576Z,2863.25
2023-05-10T10:33:34.477Z,2869.38
2023-05-10T10:34:34.439Z,2872.45
2023-05-10T10:35:34.465Z,2848.03
2023-05-10T10:36:34.460Z,2818.09
2023-05-10T10:37:34.506Z,2829.99
2023-05-10T10:38:34.479Z,2791.67
2023-05-10T10:39:34.504Z,2797.49
2023-05-10T10:40:35.074Z,2803.35
2023-05-10T10:41:34.419Z,2780.08
2023-05-10T10:42:34.350Z,2751.54
2023-05-10T10:43:34.358Z,2791.67
2023-05-10T10:44:34.331Z,2827.00
2023-05-10T10:45:34.326Z,2803.35
2023-05-10T10:46:34.353Z,2835.98
2023-05-10T10:47:34.500Z,2851.06
2023-05-10T10:48:34.298Z,2887.93
2023-05-10T10:49:34.247Z,2881.72
2023-05-10T10:50:34.308Z,2884.82
2023-05-10T10:51:34.224Z,2903.57
2023-05-10T10:52:34.498Z,2903.57
2023-05-10T10:53:34.237Z,2900.43
2023-05-10T10:54:34.178Z,2925.76
2023-05-10T10:55:34.207Z,2925.76
2023-05-10T10:56:36.430Z,2961.33
2023-05-10T10:57:34.197Z,2964.60
2023-05-10T10:58:34.145Z,2941.82
2023-05-10T10:59:34.146Z,3007.86
2023-05-10T11:00:34.145Z,2991.07
2023-05-10T11:01:34.190Z,2938.60
2023-05-10T11:02:34.158Z,2958.06
2023-05-10T11:03:34.122Z,2941.82
2023-05-10T11:04:34.139Z,2935.38
2023-05-10T11:05:34.067Z,2935.38
2023-05-10T11:06:34.034Z,2916.21
2023-05-10T11:07:34.053Z,2951.54
2023-05-10T11:08:35.764Z,2961.33
2023-05-10T11:09:34.030Z,2994.41
2023-05-10T11:10:33.981Z,3014.62
2023-05-10T11:11:33.996Z,3002.80
2023-05-10T11:12:33.983Z,3042.00
2023-05-10T11:13:33.980Z,3036.83
2023-05-10T11:14:34.023Z,3071.63
2023-05-10T11:15:33.959Z,3035.11
2023-05-10T11:16:33.980Z,3031.67
2023-05-10T11:17:33.970Z,3012.93
2023-05-10T11:18:33.935Z,3085.78
2023-05-10T11:19:33.916Z,3091.12
2023-05-10T11:20:33.896Z,3105.45
2023-05-10T11:21:33.888Z,3062.86
2023-05-10T11:22:33.859Z,3094.69
2023-05-10T11:23:33.897Z,3073.39
2023-05-10T11:24:33.848Z,3103.65
2023-05-10T11:25:33.860Z,3092.90
2023-05-10T11:26:33.852Z,3130.84
2023-05-10T11:27:33.781Z,3149.24
2023-05-10T11:28:33.801Z,3119.91
2023-05-10T11:29:33.763Z,3092.90
2023-05-10T11:30:33.813Z,3098.27
2023-05-10T11:31:33.804Z,3141.85
2023-05-10T11:32:33.758Z,3130.84
2023-05-10T11:33:33.754Z,3156.66
2023-05-10T11:34:33.735Z,3143.70
2023-05-10T11:35:33.699Z,3160.38
2023-05-10T11:36:33.772Z,3171.60
2023-05-10T11:37:33.673Z,3278.29
2023-05-10T11:38:33.684Z,3288.34
2023-05-10T11:39:33.723Z,3339.56
2023-05-10T11:40:33.711Z,3398.86
2023-05-10T11:41:33.685Z,3364.72
2023-05-10T11:42:33.642Z,3327.13
2023-05-10T11:43:33.623Z,3345.82
2023-05-10T11:44:33.606Z,3364.72
2023-05-10T11:45:33.615Z,3354.19
2023-05-10T11:46:33.636Z,3339.56
2023-05-10T11:47:33.629Z,3276.28
2023-05-10T11:48:33.555Z,3282.30
2023-05-10T11:49:33.569Z,3278.29
2023-05-10T11:50:33.537Z,3316.83
2023-05-10T11:51:33.504Z,3288.34
2023-05-10T11:52:33.483Z,3329.19
2023-05-10T11:53:33.480Z,3325.06
2023-05-10T11:54:33.503Z,3364.72
2023-05-10T11:55:33.468Z,3360.50
2023-05-10T11:56:33.489Z,3422.73
2023-05-10T11:57:33.448Z,3401.01
2023-05-10T11:58:33.552Z,3388.12
2023-05-10T11:59:33.438Z,3356.29
2023-05-10T12:00:33.454Z,3381.70
2023-05-10T12:01:33.414Z,3416.19
2023-05-10T12:02:33.436Z,3416.19
2023-05-10T12:03:33.580Z,3401.01
2023-05-10T12:04:33.405Z,3375.31
2023-05-10T12:05:33.346Z,3451.38
2023-05-10T12:06:33.511Z,3521.68
2023-05-10T12:07:33.336Z,3451.38
2023-05-10T12:08:33.431Z,3469.25
2023-05-10T12:09:43.161Z,3403.17
2023-05-10T12:10:33.350Z,3347.91
2023-05-10T12:11:33.292Z,3375.31
2023-05-10T12:12:33.285Z,3352.09
2023-05-10T12:13:33.249Z,3350.00
2023-05-10T12:14:33.285Z,3333.33
2023-05-10T12:15:33.253Z,3329.19
2023-05-10T12:16:33.335Z,3335.41
2023-05-10T12:17:33.251Z,3325.06